Time,TemperatureF,DewpointF,PressureIn,WindDirection,WindDirectionDegrees,WindSpeedMPH,WindSpeedGustMPH,Humidity,HourlyPrecipIn,Conditions,Clouds,dailyrainin,SoftwareType,DateUTC
2013-01-31 00:00:00,47.5,45.3,30.34,NNE,26,3.0,3.0,92,0.00,,,0.00,Wunderground v.1.15,2013-01-30 23:00:00,
2013-01-31 00:10:00,47.4,45.5,30.35,NNE,19,2.0,2.0,93,0.00,,,0.00,Wunderground v.1.15,2013-01-30 23:10:00,
2013-01-31 00:15:00,47.5,45.6,30.35,NNE,19,3.0,3.0,93,0.00,,,0.00,Wunderground v.1.15,2013-01-30 23:15:00,
2013-01-31 00:25:00,47.7,45.8,30.35,NNE,19,2.0,3.0,93,0.00,,,0.00,Wunderground v.1.15,2013-01-30 23:25:00,
2013-01-31 00:30:00,47.8,45.9,30.35,NNE,19,3.0,3.0,93,0.00,,,0.00,Wunderground v.1.15,2013-01-30 23:30:00,
2013-01-31 00:40:00,47.7,45.8,30.35,NNE,20,3.0,3.0,93,0.00,,,0.00,Wunderground v.1.15,2013-01-30 23:40:00,
2013-01-31 00:50:00,47.6,46.0,30.35,NNE,21,3.0,3.0,94,0.00,,,0.00,Wunderground v.1.15,2013-01-30 23:50:00,
2013-01-31 00:55:00,47.7,46.1,30.35,NNE,21,2.0,3.0,94,0.00,,,0.00,Wunderground v.1.15,2013-01-30 23:55:00,
2013-01-31 01:00:00,47.9,46.3,30.35,NNE,21,2.0,2.0,94,0.00,,,0.00,Wunderground v.1.15,2013-01-31 00:00:00,
2013-01-31 01:10:00,48.1,46.5,30.35,NNE,21,3.0,4.0,94,0.00,,,0.00,Wunderground v.1.15,2013-01-31 00:10:00,
2013-01-31 01:15:00,48.1,46.5,30.35,NNE,21,3.0,4.0,94,0.00,,,0.00,Wunderground v.1.15,2013-01-31 00:15:00,
2013-01-31 01:20:00,48.1,46.5,30.35,NNE,21,3.0,3.0,94,0.00,,,0.00,Wunderground v.1.15,2013-01-31 00:20:00,
2013-01-31 01:30:00,48.3,46.9,30.36,NNE,21,1.0,2.0,95,0.00,,,0.00,Wunderground v.1.15,2013-01-31 00:30:00,
2013-01-31 01:40:00,48.4,46.8,30.36,NNE,21,1.0,1.0,94,0.00,,,0.00,Wunderground v.1.15,2013-01-31 00:40:00,
2013-01-31 01:50:00,48.5,47.1,30.36,North,355,2.0,2.0,95,0.00,,,0.00,Wunderground v.1.15,2013-01-31 00:50:00,
2013-01-31 01:55:00,48.5,47.1,30.36,NW,323,2.0,2.0,95,0.00,,,0.00,Wunderground v.1.15,2013-01-31 00:55:00,
2013-01-31 02:05:00,48.5,47.1,30.36,NW,323,2.0,2.0,95,0.00,,,0.00,Wunderground v.1.15,2013-01-31 01:05:00,
2013-01-31 02:10:00,48.4,47.0,30.36,NW,323,1.0,2.0,95,0.00,,,0.00,Wunderground v.1.15,2013-01-31 01:10:00,
2013-01-31 02:15:00,48.3,46.9,30.37,NW,323,1.0,3.0,95,0.00,,,0.00,Wunderground v.1.15,2013-01-31 01:15:00,
2013-01-31 02:20:00,48.1,46.7,30.37,NW,323,1.0,3.0,95,0.00,,,0.00,Wunderground v.1.15,2013-01-31 01:20:00,
2013-01-31 02:30:00,48.2,46.8,30.37,NW,323,2.0,4.0,95,0.00,,,0.00,Wunderground v.1.15,2013-01-31 01:30:00,
2013-01-31 02:40:00,48.3,46.9,30.37,NW,323,2.0,3.0,95,0.00,,,0.00,Wunderground v.1.15,2013-01-31 01:40:00,
2013-01-31 02:45:00,48.3,46.9,30.37,NNW,330,2.0,2.0,95,0.00,,,0.00,Wunderground v.1.15,2013-01-31 01:45:00,
2013-01-31 02:54:00,47.8,46.4,30.36,NNW,344,2.0,4.0,95,0.00,,,0.00,Wunderground v.1.15,2013-01-31 01:54:00,
2013-01-31 03:04:00,47.7,46.3,30.36,North,349,3.0,3.0,95,0.00,,,0.00,Wunderground v.1.15,2013-01-31 02:04:00,
2013-01-31 03:10:00,47.4,46.0,30.36,North,5,3.0,3.0,95,0.00,,,0.00,Wunderground v.1.15,2013-01-31 02:10:00,
2013-01-31 03:15:00,47.6,46.2,30.36,North,5,3.0,3.0,95,0.00,,,0.00,Wunderground v.1.15,2013-01-31 02:15:00,
2013-01-31 03:24:00,47.9,46.5,30.36,North,5,2.0,2.0,95,0.00,,,0.00,Wunderground v.1.15,2013-01-31 02:24:00,
2013-01-31 03:30:00,48.1,46.7,30.36,North,5,2.0,2.0,95,0.00,,,0.00,Wunderground v.1.15,2013-01-31 02:30:00,
2013-01-31 03:39:00,48.2,46.8,30.36,North,5,1.0,3.0,95,0.00,,,0.00,Wunderground v.1.15,2013-01-31 02:39:00,
2013-01-31 03:44:00,48.1,46.7,30.36,North,5,2.0,2.0,95,0.00,,,0.00,Wunderground v.1.15,2013-01-31 02:44:00,
2013-01-31 03:49:00,47.8,46.4,30.36,North,5,2.0,2.0,95,0.00,,,0.00,Wunderground v.1.15,2013-01-31 02:49:00,
2013-01-31 04:00:00,47.6,46.2,30.36,North,5,2.0,3.0,95,0.00,,,0.00,Wunderground v.1.15,2013-01-31 03:00:00,
2013-01-31 04:09:00,47.3,45.9,30.36,North,5,1.0,1.0,95,0.00,,,0.00,Wunderground v.1.15,2013-01-31 03:09:00,
2013-01-31 04:15:00,47.0,45.6,30.36,North,5,0.0,1.0,95,0.00,,,0.00,Wunderground v.1.15,2013-01-31 03:15:00,
2013-01-31 04:24:00,46.1,44.7,30.36,North,5,3.0,4.0,95,0.00,,,0.00,Wunderground v.1.15,2013-01-31 03:24:00,
2013-01-31 04:34:00,46.1,44.7,30.36,North,5,3.0,3.0,95,0.00,,,0.00,Wunderground v.1.15,2013-01-31 03:34:00,
2013-01-31 04:40:00,46.3,44.9,30.36,North,5,2.0,3.0,95,0.00,,,0.00,Wunderground v.1.15,2013-01-31 03:40:00,
2013-01-31 04:45:00,46.3,44.9,30.35,North,5,2.0,2.0,95,0.00,,,0.00,Wunderground v.1.15,2013-01-31 03:45:00,
2013-01-31 04:50:00,46.3,44.9,30.35,North,5,1.0,2.0,95,0.00,,,0.00,Wunderground v.1.15,2013-01-31 03:50:00,
2013-01-31 05:00:00,46.5,45.1,30.35,North,5,1.0,2.0,95,0.00,,,0.00,Wunderground v.1.15,2013-01-31 04:00:00,
2013-01-31 05:10:00,45.6,44.0,30.36,North,5,1.0,1.0,94,0.00,,,0.00,Wunderground v.1.15,2013-01-31 04:10:00,
2013-01-31 05:15:00,45.3,44.0,30.36,North,5,1.0,3.0,95,0.00,,,0.00,Wunderground v.1.15,2013-01-31 04:15:00,
2013-01-31 05:25:00,45.8,44.7,30.36,North,5,2.0,3.0,96,0.00,,,0.00,Wunderground v.1.15,2013-01-31 04:25:00,
2013-01-31 05:35:00,47.2,46.1,30.37,North,5,3.0,3.0,96,0.00,,,0.00,Wunderground v.1.15,2013-01-31 04:35:00,
2013-01-31 05:40:00,47.7,46.6,30.37,North,5,3.0,3.0,96,0.00,,,0.00,Wunderground v.1.15,2013-01-31 04:40:00,
2013-01-31 05:45:00,47.8,46.7,30.37,North,5,2.0,2.0,96,0.00,,,0.00,Wunderground v.1.15,2013-01-31 04:45:00,
2013-01-31 05:55:00,48.2,47.1,30.37,North,5,1.0,1.0,96,0.00,,,0.00,Wunderground v.1.15,2013-01-31 04:55:00,
2013-01-31 06:00:00,48.3,46.9,30.37,North,5,1.0,3.0,95,0.00,,,0.01,Wunderground v.1.15,2013-01-31 05:00:00,
2013-01-31 06:10:00,48.5,47.1,30.38,North,5,2.0,2.0,95,0.00,,,0.01,Wunderground v.1.15,2013-01-31 05:10:00,
2013-01-31 06:15:00,47.9,46.5,30.37,North,5,2.0,3.0,95,0.00,,,0.01,Wunderground v.1.15,2013-01-31 05:15:00,
2013-01-31 06:25:00,47.3,45.9,30.38,North,5,2.0,2.0,95,0.00,,,0.01,Wunderground v.1.15,2013-01-31 05:25:00,
2013-01-31 06:30:00,47.3,45.9,30.38,North,5,1.0,1.0,95,0.00,,,0.01,Wunderground v.1.15,2013-01-31 05:30:00,
2013-01-31 06:40:00,47.4,46.3,30.38,North,5,1.0,1.0,96,0.00,,,0.01,Wunderground v.1.15,2013-01-31 05:40:00,
2013-01-31 06:45:00,47.8,46.7,30.38,NE,38,2.0,2.0,96,0.00,,,0.01,Wunderground v.1.15,2013-01-31 05:45:00,
2013-01-31 06:55:00,46.8,45.4,30.38,NE,38,0.0,2.0,95,0.00,,,0.01,Wunderground v.1.15,2013-01-31 05:55:00,
2013-01-31 07:00:00,46.3,44.7,30.38,NE,38,1.0,1.0,94,0.00,,,0.01,Wunderground v.1.15,2013-01-31 06:00:00,
2013-01-31 07:10:00,45.2,43.6,30.39,NE,38,2.0,2.0,94,0.00,,,0.01,Wunderground v.1.15,2013-01-31 06:10:00,
2013-01-31 07:15:00,44.7,43.1,30.39,NE,38,2.0,2.0,94,0.00,,,0.01,Wunderground v.1.15,2013-01-31 06:15:00,
2013-01-31 07:20:00,44.6,43.3,30.39,NE,38,1.0,2.0,95,0.00,,,0.01,Wunderground v.1.15,2013-01-31 06:20:00,
2013-01-31 07:30:00,44.6,43.3,30.40,NE,38,1.0,1.0,95,0.00,,,0.01,Wunderground v.1.15,2013-01-31 06:30:00,
2013-01-31 07:40:00,45.0,43.9,30.40,NE,38,1.0,1.0,96,0.00,,,0.01,Wunderground v.1.15,2013-01-31 06:40:00,
2013-01-31 07:45:00,45.5,44.4,30.40,NE,38,1.0,1.0,96,0.00,,,0.01,Wunderground v.1.15,2013-01-31 06:45:00,
2013-01-31 07:54:00,45.9,44.8,30.40,NE,38,0.0,0.0,96,0.00,,,0.01,Wunderground v.1.15,2013-01-31 06:54:00,
2013-01-31 08:00:00,46.1,45.0,30.40,NE,38,0.0,0.0,96,0.00,,,0.01,Wunderground v.1.15,2013-01-31 07:00:00,
2013-01-31 08:10:00,46.9,45.8,30.40,NE,38,1.0,1.0,96,0.00,,,0.01,Wunderground v.1.15,2013-01-31 07:10:00,
2013-01-31 08:15:00,47.2,46.1,30.40,NE,38,1.0,1.0,96,0.00,,,0.01,Wunderground v.1.15,2013-01-31 07:15:00,
2013-01-31 08:25:00,47.3,45.9,30.40,NE,38,1.0,2.0,95,0.00,,,0.01,Wunderground v.1.15,2013-01-31 07:25:00,
2013-01-31 08:34:00,47.7,46.3,30.41,NE,38,2.0,2.0,95,0.00,,,0.01,Wunderground v.1.15,2013-01-31 07:34:00,
2013-01-31 08:40:00,47.7,46.3,30.41,NE,38,2.0,2.0,95,0.00,,,0.01,Wunderground v.1.15,2013-01-31 07:40:00,
2013-01-31 08:45:00,47.7,46.3,30.41,NE,38,2.0,3.0,95,0.00,,,0.01,Wunderground v.1.15,2013-01-31 07:45:00,
2013-01-31 08:54:00,47.0,45.4,30.41,NE,38,3.0,3.0,94,0.00,,,0.01,Wunderground v.1.15,2013-01-31 07:54:00,
2013-01-31 09:00:00,47.2,45.8,30.42,NE,38,2.0,2.0,95,0.00,,,0.01,Wunderground v.1.15,2013-01-31 08:00:00,
2013-01-31 09:09:00,47.7,46.3,30.41,NE,38,2.0,2.0,95,0.00,,,0.01,Wunderground v.1.15,2013-01-31 08:09:00,
2013-01-31 09:15:00,47.9,46.5,30.41,NE,38,2.0,2.0,95,0.00,,,0.01,Wunderground v.1.15,2013-01-31 08:15:00,
2013-01-31 09:24:00,48.7,47.3,30.42,NE,38,1.0,1.0,95,0.00,,,0.01,Wunderground v.1.15,2013-01-31 08:24:00,
2013-01-31 09:34:00,49.6,48.2,30.42,NE,38,2.0,2.0,95,0.00,,,0.01,Wunderground v.1.15,2013-01-31 08:34:00,
2013-01-31 09:39:00,50.2,48.8,30.42,NE,38,2.0,2.0,95,0.00,,,0.01,Wunderground v.1.15,2013-01-31 08:39:00,
2013-01-31 09:44:00,50.7,49.3,30.42,NE,38,2.0,2.0,95,0.00,,,0.01,Wunderground v.1.15,2013-01-31 08:44:00,
2013-01-31 09:54:00,51.9,50.5,30.42,NE,38,0.0,2.0,95,0.00,,,0.01,Wunderground v.1.15,2013-01-31 08:54:00,
2013-01-31 10:00:00,52.4,51.0,30.42,NE,38,1.0,2.0,95,0.00,,,0.01,Wunderground v.1.15,2013-01-31 09:00:00,
2013-01-31 10:09:00,53.4,51.7,30.42,NE,38,2.0,2.0,94,0.00,,,0.01,Wunderground v.1.15,2013-01-31 09:09:00,
2013-01-31 10:14:00,53.9,52.2,30.42,NE,38,2.0,3.0,94,0.00,,,0.01,Wunderground v.1.15,2013-01-31 09:14:00,
2013-01-31 10:19:00,54.4,52.7,30.42,NE,38,2.0,2.0,94,0.00,,,0.01,Wunderground v.1.15,2013-01-31 09:19:00,
2013-01-31 10:34:00,56.2,53.9,30.42,NE,38,2.0,2.0,92,0.00,,,0.01,Wunderground v.1.15,2013-01-31 09:34:00,
2013-01-31 10:39:00,56.7,54.4,30.42,NE,38,1.0,2.0,92,0.00,,,0.01,Wunderground v.1.15,2013-01-31 09:39:00,
2013-01-31 10:44:00,57.2,54.6,30.42,NE,38,1.0,1.0,91,0.00,,,0.01,Wunderground v.1.15,2013-01-31 09:44:00,
2013-01-31 10:50:00,57.7,54.8,30.43,NE,38,1.0,2.0,90,0.00,,,0.01,Wunderground v.1.15,2013-01-31 09:50:00,
2013-01-31 11:00:00,58.8,55.6,30.42,NE,38,1.0,1.0,89,0.00,,,0.01,Wunderground v.1.15,2013-01-31 10:00:00,
2013-01-31 11:09:00,59.5,55.3,30.43,NE,38,0.0,0.0,86,0.00,,,0.01,Wunderground v.1.15,2013-01-31 10:09:00,
2013-01-31 11:14:00,59.8,55.3,30.43,NE,38,0.0,0.0,85,0.00,,,0.01,Wunderground v.1.15,2013-01-31 10:14:00,
2013-01-31 11:19:00,59.6,54.8,30.44,NE,38,0.0,1.0,84,0.00,,,0.01,Wunderground v.1.15,2013-01-31 10:19:00,
2013-01-31 11:34:00,59.6,55.1,30.44,NE,38,0.0,0.0,85,0.00,,,0.01,Wunderground v.1.15,2013-01-31 10:34:00,
2013-01-31 11:39:00,60.0,55.2,30.44,NE,38,0.0,1.0,84,0.00,,,0.01,Wunderground v.1.15,2013-01-31 10:39:00,
2013-01-31 11:45:00,59.7,54.5,30.44,NE,38,1.0,1.0,83,0.00,,,0.01,Wunderground v.1.15,2013-01-31 10:45:00,
2013-01-31 11:54:00,59.4,53.9,30.44,NE,38,1.0,1.0,82,0.00,,,0.01,Wunderground v.1.15,2013-01-31 10:54:00,
2013-01-31 12:04:00,59.5,54.0,30.44,NE,38,1.0,2.0,82,0.00,,,0.01,Wunderground v.1.15,2013-01-31 11:04:00,
2013-01-31 12:09:00,59.6,54.1,30.44,NE,38,1.0,2.0,82,0.00,,,0.01,Wunderground v.1.15,2013-01-31 11:09:00,
2013-01-31 12:14:00,59.6,54.1,30.44,NE,38,1.0,1.0,82,0.00,,,0.01,Wunderground v.1.15,2013-01-31 11:14:00,
2013-01-31 12:19:00,59.7,54.2,30.44,NE,38,1.0,2.0,82,0.00,,,0.01,Wunderground v.1.15,2013-01-31 11:19:00,
2013-01-31 12:29:00,60.2,54.7,30.44,NE,38,1.0,1.0,82,0.00,,,0.01,Wunderground v.1.15,2013-01-31 11:29:00,
2013-01-31 12:40:00,61.1,53.8,30.43,NE,38,1.0,2.0,77,0.00,,,0.01,Wunderground v.1.15,2013-01-31 11:40:00,
2013-01-31 12:50:00,61.7,52.2,30.43,NE,38,3.0,3.0,71,0.00,,,0.01,Wunderground v.1.15,2013-01-31 11:50:00,
2013-01-31 13:05:00,62.7,51.6,30.43,NE,38,2.0,2.0,67,0.00,,,0.01,Wunderground v.1.15,2013-01-31 12:05:00,
2013-01-31 13:10:00,63.1,51.1,30.43,NE,38,1.0,2.0,65,0.00,,,0.01,Wunderground v.1.15,2013-01-31 12:10:00,
2013-01-31 13:20:00,63.4,51.0,30.42,NE,38,3.0,3.0,64,0.00,,,0.01,Wunderground v.1.15,2013-01-31 12:20:00,
2013-01-31 13:25:00,63.6,51.6,30.42,NE,38,2.0,2.0,65,0.00,,,0.01,Wunderground v.1.15,2013-01-31 12:25:00,
2013-01-31 13:35:00,63.7,50.4,30.42,NE,38,2.0,2.0,62,0.00,,,0.01,Wunderground v.1.15,2013-01-31 12:35:00,
2013-01-31 13:40:00,64.0,50.7,30.42,NE,38,1.0,2.0,62,0.00,,,0.01,Wunderground v.1.15,2013-01-31 12:40:00,
2013-01-31 13:45:00,63.8,50.1,30.42,NE,38,2.0,4.0,61,0.00,,,0.01,Wunderground v.1.15,2013-01-31 12:45:00,
2013-01-31 13:50:00,63.7,50.0,30.41,NE,38,3.0,4.0,61,0.00,,,0.01,Wunderground v.1.15,2013-01-31 12:50:00,
2013-01-31 14:00:00,64.0,49.8,30.41,NE,38,2.0,2.0,60,0.00,,,0.01,Wunderground v.1.15,2013-01-31 13:00:00,
2013-01-31 14:10:00,64.5,49.4,30.41,NE,38,2.0,2.0,58,0.00,,,0.01,Wunderground v.1.15,2013-01-31 13:10:00,
2013-01-31 14:15:00,64.7,49.1,30.40,NE,38,2.0,2.0,57,0.00,,,0.01,Wunderground v.1.15,2013-01-31 13:15:00,
2013-01-31 14:25:00,64.9,49.3,30.40,NE,38,1.0,2.0,57,0.00,,,0.01,Wunderground v.1.15,2013-01-31 13:25:00,
2013-01-31 14:30:00,65.2,49.1,30.40,NE,38,1.0,3.0,56,0.00,,,0.01,Wunderground v.1.15,2013-01-31 13:30:00,
2013-01-31 14:40:00,64.8,50.6,30.39,NE,38,2.0,3.0,60,0.00,,,0.01,Wunderground v.1.15,2013-01-31 13:40:00,
2013-01-31 14:45:00,64.8,51.5,30.39,NE,38,2.0,2.0,62,0.00,,,0.01,Wunderground v.1.15,2013-01-31 13:45:00,
2013-01-31 14:55:00,64.8,50.1,30.39,NE,38,2.0,4.0,59,0.00,,,0.01,Wunderground v.1.15,2013-01-31 13:55:00,
2013-01-31 15:00:00,64.7,51.4,30.38,NE,38,2.0,3.0,62,0.00,,,0.01,Wunderground v.1.15,2013-01-31 14:00:00,
2013-01-31 15:10:00,64.9,51.6,30.38,NE,38,1.0,1.0,62,0.00,,,0.01,Wunderground v.1.15,2013-01-31 14:10:00,
2013-01-31 15:15:00,65.0,51.2,30.38,NE,38,1.0,5.0,61,0.00,,,0.01,Wunderground v.1.15,2013-01-31 14:15:00,
2013-01-31 15:20:00,64.9,52.4,30.37,NE,38,2.0,2.0,64,0.00,,,0.01,Wunderground v.1.15,2013-01-31 14:20:00,
2013-01-31 15:34:00,65.0,52.1,30.37,ENE,67,1.0,2.0,63,0.00,,,0.01,Wunderground v.1.15,2013-01-31 14:34:00,
2013-01-31 15:40:00,65.2,52.3,30.37,SE,140,1.0,2.0,63,0.00,,,0.01,Wunderground v.1.15,2013-01-31 14:40:00,
2013-01-31 15:49:00,64.8,51.9,30.37,SSE,162,2.0,2.0,63,0.00,,,0.01,Wunderground v.1.15,2013-01-31 14:49:00,
2013-01-31 16:00:00,64.7,51.8,30.37,SSE,166,2.0,4.0,63,0.00,,,0.01,Wunderground v.1.15,2013-01-31 15:00:00,
2013-01-31 16:09:00,64.6,51.3,30.37,SSE,167,2.0,2.0,62,0.00,,,0.01,Wunderground v.1.15,2013-01-31 15:09:00,
2013-01-31 16:20:00,64.7,49.1,30.37,SSE,166,2.0,2.0,57,0.00,,,0.01,Wunderground v.1.15,2013-01-31 15:20:00,
2013-01-31 16:34:00,65.2,48.6,30.37,SSE,166,1.0,1.0,55,0.00,,,0.01,Wunderground v.1.15,2013-01-31 15:34:00,
2013-01-31 16:40:00,65.2,48.1,30.37,SSE,166,1.0,1.0,54,0.00,,,0.01,Wunderground v.1.15,2013-01-31 15:40:00,
2013-01-31 16:49:00,65.7,49.6,30.36,SSE,166,0.0,1.0,56,0.00,,,0.01,Wunderground v.1.15,2013-01-31 15:49:00,
2013-01-31 16:54:00,65.4,48.3,30.36,SSE,159,1.0,1.0,54,0.00,,,0.01,Wunderground v.1.15,2013-01-31 15:54:00,
2013-01-31 17:00:00,65.1,49.0,30.36,SSE,157,1.0,1.0,56,0.00,,,0.01,Wunderground v.1.15,2013-01-31 16:00:00,
2013-01-31 17:09:00,64.7,49.1,30.36,SSE,147,1.0,1.0,57,0.00,,,0.01,Wunderground v.1.15,2013-01-31 16:09:00,
2013-01-31 17:14:00,64.6,49.0,30.36,SSE,147,1.0,1.0,57,0.00,,,0.01,Wunderground v.1.15,2013-01-31 16:14:00,
2013-01-31 17:20:00,64.7,48.6,30.36,SSE,147,1.0,1.0,56,0.00,,,0.01,Wunderground v.1.15,2013-01-31 16:20:00,
2013-01-31 17:34:00,64.8,48.7,30.36,SSE,148,0.0,0.0,56,0.00,,,0.01,Wunderground v.1.15,2013-01-31 16:34:00,
2013-01-31 17:40:00,64.7,48.6,30.36,SSE,148,0.0,0.0,56,0.00,,,0.01,Wunderground v.1.15,2013-01-31 16:40:00,
2013-01-31 17:45:00,64.3,48.7,30.36,SSE,148,0.0,0.0,57,0.00,,,0.01,Wunderground v.1.15,2013-01-31 16:45:00,
2013-01-31 17:54:00,63.5,48.5,30.36,SSE,148,0.0,0.0,58,0.00,,,0.01,Wunderground v.1.15,2013-01-31 16:54:00,
2013-01-31 18:00:00,63.3,48.7,30.37,SSE,148,0.0,0.0,59,0.00,,,0.01,Wunderground v.1.15,2013-01-31 17:00:00,
2013-01-31 18:10:00,62.9,48.3,30.37,SSE,148,0.0,0.0,59,0.00,,,0.01,Wunderground v.1.15,2013-01-31 17:10:00,
2013-01-31 18:15:00,62.6,48.5,30.37,SSE,148,0.0,0.0,60,0.00,,,0.01,Wunderground v.1.15,2013-01-31 17:15:00,
2013-01-31 18:20:00,62.2,48.6,30.37,SSE,148,0.0,0.0,61,0.00,,,0.01,Wunderground v.1.15,2013-01-31 17:20:00,
2013-01-31 18:30:00,61.4,48.7,30.37,SSE,148,0.0,0.0,63,0.00,,,0.01,Wunderground v.1.15,2013-01-31 17:30:00,
2013-01-31 18:39:00,60.8,49.8,30.37,SSE,148,0.0,0.0,67,0.00,,,0.01,Wunderground v.1.15,2013-01-31 17:39:00,
2013-01-31 18:44:00,60.5,49.5,30.36,SSE,148,0.0,0.0,67,0.00,,,0.01,Wunderground v.1.15,2013-01-31 17:44:00,
2013-01-31 18:50:00,60.2,49.6,30.36,SSE,149,1.0,1.0,68,0.00,,,0.01,Wunderground v.1.15,2013-01-31 17:50:00,
2013-01-31 19:04:00,59.3,52.1,30.37,SSE,147,3.0,3.0,77,0.00,,,0.01,Wunderground v.1.15,2013-01-31 18:04:00,
2013-01-31 19:10:00,58.4,52.3,30.37,SSE,148,2.0,4.0,80,0.00,,,0.01,Wunderground v.1.15,2013-01-31 18:10:00,
2013-01-31 19:15:00,57.5,52.0,30.37,SSE,156,2.0,2.0,82,0.00,,,0.01,Wunderground v.1.15,2013-01-31 18:15:00,
2013-01-31 19:24:00,56.3,52.2,30.38,SSE,162,3.0,3.0,86,0.00,,,0.01,Wunderground v.1.15,2013-01-31 18:24:00,
2013-01-31 19:30:00,55.9,52.1,30.38,SSE,164,2.0,4.0,87,0.00,,,0.01,Wunderground v.1.15,2013-01-31 18:30:00,
2013-01-31 19:40:00,55.3,52.1,30.38,SSW,198,3.0,6.0,89,0.00,,,0.01,Wunderground v.1.15,2013-01-31 18:40:00,
2013-01-31 19:44:00,55.1,52.2,30.38,SSW,203,3.0,3.0,90,0.00,,,0.01,Wunderground v.1.15,2013-01-31 18:44:00,
2013-01-31 19:50:00,54.8,51.9,30.38,South,171,3.0,3.0,90,0.00,,,0.01,Wunderground v.1.15,2013-01-31 18:50:00,
2013-01-31 20:04:00,54.3,52.0,30.38,SSW,210,3.0,3.0,92,0.00,,,0.01,Wunderground v.1.15,2013-01-31 19:04:00,
2013-01-31 20:09:00,54.0,51.7,30.38,SW,234,3.0,3.0,92,0.00,,,0.01,Wunderground v.1.15,2013-01-31 19:09:00,
2013-01-31 20:15:00,53.9,51.6,30.38,SSW,202,4.0,4.0,92,0.00,,,0.01,Wunderground v.1.15,2013-01-31 19:15:00,
2013-01-31 20:25:00,53.6,51.3,30.38,SSW,192,4.0,4.0,92,0.00,,,0.01,Wunderground v.1.15,2013-01-31 19:25:00,
2013-01-31 20:30:00,53.7,51.7,30.38,SSW,192,2.0,4.0,93,0.00,,,0.01,Wunderground v.1.15,2013-01-31 19:30:00,
2013-01-31 20:40:00,53.6,51.6,30.38,SSW,192,1.0,2.0,93,0.00,,,0.01,Wunderground v.1.15,2013-01-31 19:40:00,
2013-01-31 20:50:00,53.4,51.4,30.38,SSW,192,2.0,2.0,93,0.00,,,0.01,Wunderground v.1.15,2013-01-31 19:50:00,
2013-01-31 21:05:00,53.2,51.2,30.38,SSW,192,1.0,1.0,93,0.00,,,0.01,Wunderground v.1.15,2013-01-31 20:05:00,
2013-01-31 21:35:00,52.8,51.1,30.37,SSW,192,0.0,1.0,94,0.00,,,0.01,Wunderground v.1.15,2013-01-31 20:35:00,
2013-01-31 21:40:00,52.6,50.9,30.37,SSW,192,0.0,1.0,94,0.00,,,0.01,Wunderground v.1.15,2013-01-31 20:40:00,
2013-01-31 21:45:00,52.5,50.8,30.37,SSW,192,1.0,2.0,94,0.00,,,0.01,Wunderground v.1.15,2013-01-31 20:45:00,
2013-01-31 21:55:00,52.4,50.7,30.37,SSW,192,1.0,1.0,94,0.00,,,0.01,Wunderground v.1.15,2013-01-31 20:55:00,
2013-01-31 22:01:00,52.4,50.7,30.37,SSW,192,1.0,1.0,94,0.00,,,0.01,Wunderground v.1.15,2013-01-31 21:01:00,
2013-01-31 22:15:00,52.4,50.7,30.36,SSW,192,0.0,0.0,94,0.00,,,0.01,Wunderground v.1.15,2013-01-31 21:15:00,
2013-01-31 22:25:00,52.5,51.1,30.37,South,180,0.0,1.0,95,0.00,,,0.01,Wunderground v.1.15,2013-01-31 21:25:00,
2013-01-31 22:35:00,52.2,50.5,30.36,South,178,1.0,1.0,94,0.00,,,0.01,Wunderground v.1.15,2013-01-31 21:35:00,
2013-01-31 22:40:00,52.2,50.8,30.36,South,178,0.0,1.0,95,0.00,,,0.01,Wunderground v.1.15,2013-01-31 21:40:00,
2013-01-31 22:50:00,52.3,50.9,30.36,South,174,1.0,2.0,95,0.00,,,0.01,Wunderground v.1.15,2013-01-31 21:50:00,
2013-01-31 23:00:00,52.3,50.9,30.36,South,174,0.0,0.0,95,0.00,,,0.01,Wunderground v.1.15,2013-01-31 22:00:00,
2013-01-31 23:10:00,52.5,51.1,30.35,South,174,0.0,1.0,95,0.00,,,0.01,Wunderground v.1.15,2013-01-31 22:10:00,
2013-01-31 23:20:00,52.6,51.2,30.35,SSE,161,0.0,0.0,95,0.00,,,0.01,Wunderground v.1.15,2013-01-31 22:20:00,
2013-01-31 23:30:00,52.3,50.9,30.35,SSE,162,1.0,1.0,95,0.00,,,0.01,Wunderground v.1.15,2013-01-31 22:30:00,
2013-01-31 23:40:00,52.1,50.7,30.35,SSE,162,0.0,0.0,95,0.00,,,0.01,Wunderground v.1.15,2013-01-31 22:40:00,
2013-01-31 23:45:00,51.9,50.5,30.35,SSE,165,0.0,4.0,95,0.00,,,0.01,Wunderground v.1.15,2013-01-31 22:45:00,
2013-01-31 23:55:00,51.7,50.3,30.35,SSE,165,1.0,1.0,95,0.00,,,0.01,Wunderground v.1.15,2013-01-31 22:55:00,